createdAt,value
2022-10-22T00:02:27.795Z,13.30
2022-10-22T00:04:54.579Z,13.00
2022-10-22T00:07:21.246Z,10.70
2022-10-22T00:09:47.645Z,12.63
2022-10-22T00:12:15.384Z,10.67
2022-10-22T00:14:42.735Z,10.97
2022-10-22T00:17:11.626Z,8.40
2022-10-22T00:19:39.153Z,10.93
2022-10-22T00:22:06.087Z,7.97
2022-10-22T00:24:36.790Z,9.10
2022-10-22T00:27:03.968Z,8.10
2022-10-22T00:29:30.457Z,9.30
2022-10-22T00:31:57.050Z,11.73
2022-10-22T00:34:23.937Z,12.43
2022-10-22T00:36:51.211Z,7.67
2022-10-22T00:39:20.409Z,10.37
2022-10-22T00:41:48.687Z,9.53
2022-10-22T00:44:52.537Z,10.50
2022-10-22T00:47:20.969Z,11.37
2022-10-22T00:49:48.034Z,7.07
2022-10-22T00:52:14.584Z,7.03
2022-10-22T00:54:42.483Z,11.00
2022-10-22T00:57:09.693Z,11.20
2022-10-22T00:59:37.673Z,10.80
2022-10-22T01:02:04.236Z,9.73
2022-10-22T01:04:30.647Z,7.70
2022-10-22T01:06:57.147Z,13.70
2022-10-22T01:09:46.761Z,10.43
2022-10-22T01:12:31.892Z,11.50
2022-10-22T01:15:11.579Z,9.67
2022-10-22T01:17:56.019Z,5.10
2022-10-22T01:20:50.449Z,7.57
2022-10-22T01:23:49.342Z,8.23
2022-10-22T01:26:21.683Z,10.00
2022-10-22T01:29:07.286Z,8.40
2022-10-22T01:31:40.113Z,8.07
2022-10-22T01:34:08.242Z,6.97
2022-10-22T01:36:37.518Z,12.10
2022-10-22T01:39:05.549Z,11.60
2022-10-22T01:41:32.121Z,11.30
2022-10-22T01:43:58.525Z,11.43
2022-10-22T01:46:28.023Z,10.67
2022-10-22T01:49:03.245Z,18.47
2022-10-22T01:51:38.832Z,10.33
2022-10-22T01:54:33.861Z,17.37
2022-10-22T01:57:28.523Z,11.33
2022-10-22T02:00:06.262Z,8.27
2022-10-22T02:02:35.802Z,6.07
2022-10-22T02:05:16.940Z,7.57
2022-10-22T02:07:58.187Z,8.50
2022-10-22T02:10:25.109Z,9.77
2022-10-22T02:12:55.872Z,8.67
2022-10-22T02:15:25.638Z,8.70
2022-10-22T02:17:55.911Z,12.90
2022-10-22T02:20:27.750Z,9.30
2022-10-22T02:22:55.476Z,6.50
2022-10-22T02:25:23.632Z,7.63
2022-10-22T02:27:58.576Z,12.27
2022-10-22T02:30:25.002Z,12.60
2022-10-22T02:33:02.798Z,11.63
2022-10-22T02:35:30.259Z,8.50
2022-10-22T02:37:58.944Z,9.60
2022-10-22T02:40:26.206Z,11.03
2022-10-22T02:42:53.199Z,9.50
2022-10-22T02:45:20.396Z,14.70
2022-10-22T02:47:47.339Z,13.57
2022-10-22T02:50:13.792Z,12.67
2022-10-22T02:52:40.428Z,9.27
2022-10-22T02:55:07.803Z,18.07
2022-10-22T02:57:34.222Z,12.00
2022-10-22T03:00:00.643Z,16.80
2022-10-22T03:02:27.077Z,11.73
2022-10-22T03:04:53.437Z,13.90
2022-10-22T03:07:19.963Z,9.77
2022-10-22T03:09:46.650Z,10.93
2022-10-22T03:12:13.051Z,8.93
2022-10-22T03:14:39.451Z,9.93
2022-10-22T03:17:05.881Z,10.93
2022-10-22T03:19:32.339Z,9.07
2022-10-22T03:22:10.117Z,12.33
2022-10-22T03:24:39.776Z,14.97
2022-10-22T03:27:06.290Z,8.77
2022-10-22T03:29:36.050Z,7.97
2022-10-22T03:32:02.613Z,7.80
2022-10-22T03:34:29.016Z,14.10
2022-10-22T03:36:58.143Z,11.77
2022-10-22T03:39:24.830Z,7.07
2022-10-22T03:41:52.546Z,14.40
2022-10-22T03:44:20.731Z,10.80
2022-10-22T03:46:47.157Z,13.00
2022-10-22T03:49:13.511Z,10.83
2022-10-22T03:51:39.953Z,9.73
2022-10-22T03:54:06.473Z,14.83
2022-10-22T03:56:33.079Z,13.27
2022-10-22T03:59:00.989Z,9.30
2022-10-22T04:01:29.900Z,8.50
2022-10-22T04:03:56.797Z,13.50
2022-10-22T04:06:23.856Z,10.80
2022-10-22T04:08:50.264Z,20.13
2022-10-22T04:11:17.165Z,12.10
2022-10-22T04:13:44.278Z,13.50
2022-10-22T04:16:20.856Z,9.87
2022-10-22T04:18:49.195Z,13.20
2022-10-22T04:21:17.740Z,15.20
2022-10-22T04:23:46.205Z,10.50
2022-10-22T04:26:12.868Z,9.77
2022-10-22T04:28:39.580Z,15.00
2022-10-22T04:31:14.951Z,16.83
2022-10-22T04:33:41.866Z,16.50
2022-10-22T04:36:14.268Z,12.40
2022-10-22T04:38:42.304Z,11.63
2022-10-22T04:41:30.970Z,10.10
2022-10-22T04:43:58.352Z,15.70
2022-10-22T04:46:26.572Z,13.03
2022-10-22T04:48:53.450Z,13.03
2022-10-22T04:51:22.157Z,7.97
2022-10-22T04:53:48.737Z,11.13
2022-10-22T04:56:25.048Z,10.10
2022-10-22T04:58:54.865Z,10.57
2022-10-22T05:01:24.031Z,11.70
2022-10-22T05:03:52.432Z,11.73
2022-10-22T05:06:20.979Z,15.40
2022-10-22T05:08:48.829Z,11.53
2022-10-22T05:11:20.565Z,8.87
2022-10-22T05:13:47.586Z,11.10
2022-10-22T05:16:14.506Z,12.63
2022-10-22T05:18:43.054Z,12.70
2022-10-22T05:21:18.696Z,12.07
2022-10-22T05:23:46.853Z,17.83
2022-10-22T05:26:15.147Z,14.80
2022-10-22T05:28:41.805Z,11.90
2022-10-22T05:31:10.581Z,12.47
2022-10-22T05:33:37.092Z,11.97
2022-10-22T05:36:05.687Z,25.90
2022-10-22T05:38:33.579Z,21.93
2022-10-22T05:41:11.413Z,15.63
2022-10-22T05:43:38.092Z,12.53
2022-10-22T05:46:07.349Z,15.57
2022-10-22T05:48:34.075Z,13.50
2022-10-22T05:51:05.494Z,12.70
2022-10-22T05:53:32.988Z,13.03
2022-10-22T05:56:03.720Z,19.40
2022-10-22T05:58:30.332Z,10.90
2022-10-22T06:01:27.802Z,12.63
2022-10-22T06:03:56.876Z,12.40
2022-10-22T06:06:30.886Z,10.97
2022-10-22T06:09:20.248Z,13.23
2022-10-22T06:11:48.250Z,15.70
2022-10-22T06:14:14.840Z,11.67
2022-10-22T06:16:41.309Z,11.27
2022-10-22T06:19:08.078Z,10.53
2022-10-22T06:21:34.430Z,12.33
2022-10-22T06:24:01.518Z,11.57
2022-10-22T06:26:28.289Z,12.77
2022-10-22T06:28:56.156Z,9.77
2022-10-22T06:31:23.418Z,11.30
2022-10-22T06:33:49.834Z,13.20
2022-10-22T06:36:19.335Z,13.97
2022-10-22T06:38:45.901Z,9.23
2022-10-22T06:41:14.860Z,22.73
2022-10-22T06:43:45.231Z,14.43
2022-10-22T06:46:14.903Z,10.30
2022-10-22T06:48:49.691Z,11.67
2022-10-22T06:51:16.090Z,13.10
2022-10-22T06:53:42.605Z,9.50
2022-10-22T06:56:11.862Z,19.77
2022-10-22T06:58:38.941Z,9.70
2022-10-22T07:01:11.504Z,14.87
2022-10-22T07:03:39.093Z,13.27
2022-10-22T07:06:10.205Z,14.23
2022-10-22T07:08:38.231Z,11.80
2022-10-22T07:11:10.193Z,9.60
2022-10-22T07:13:36.925Z,10.53
2022-10-22T07:16:04.593Z,17.47
2022-10-22T07:18:31.895Z,11.57
2022-10-22T07:20:58.397Z,11.70
2022-10-22T07:23:25.037Z,12.83
2022-10-22T07:25:51.532Z,11.77
2022-10-22T07:28:18.145Z,8.83
2022-10-22T07:30:44.625Z,13.00
2022-10-22T07:33:11.495Z,11.13
2022-10-22T07:35:39.887Z,15.70
2022-10-22T07:38:07.735Z,23.00
2022-10-22T07:40:35.092Z,10.50
2022-10-22T07:43:02.050Z,11.40
2022-10-22T07:45:28.676Z,11.00
2022-10-22T07:47:55.207Z,8.90
2022-10-22T07:50:21.800Z,10.90
2022-10-22T07:52:48.353Z,11.17
2022-10-22T07:55:14.834Z,11.33
2022-10-22T07:57:41.325Z,8.13
2022-10-22T08:00:09.032Z,8.47
2022-10-22T08:02:35.542Z,11.00
2022-10-22T08:05:01.965Z,6.03
2022-10-22T08:07:28.478Z,8.17
2022-10-22T08:09:55.004Z,5.03
2022-10-22T08:12:21.597Z,5.70
2022-10-22T08:14:48.003Z,7.53
2022-10-22T08:17:15.685Z,6.00
2022-10-22T08:19:42.110Z,7.43
2022-10-22T08:22:09.869Z,8.90
2022-10-22T08:24:36.280Z,17.23
2022-10-22T08:27:02.756Z,7.00
2022-10-22T08:29:29.172Z,8.57
2022-10-22T08:31:55.566Z,5.57
2022-10-22T08:34:21.964Z,4.83
2022-10-22T08:36:48.444Z,5.93
2022-10-22T08:39:14.961Z,5.90
2022-10-22T08:41:47.606Z,4.93
2022-10-22T08:44:32.802Z,6.30
2022-10-22T08:47:30.849Z,6.90
2022-10-22T08:49:59.938Z,4.93
2022-10-22T08:52:26.507Z,8.07
2022-10-22T08:54:56.014Z,6.40
2022-10-22T08:57:56.593Z,8.70
2022-10-22T09:00:55.431Z,14.40
2022-10-22T09:03:51.035Z,5.40
2022-10-22T09:06:22.809Z,5.73
2022-10-22T09:08:50.186Z,9.07
2022-10-22T09:11:30.509Z,9.10
2022-10-22T09:13:58.486Z,4.97
2022-10-22T09:16:38.539Z,5.23
2022-10-22T09:19:32.923Z,4.83
2022-10-22T09:22:14.267Z,5.40
2022-10-22T09:24:52.463Z,4.20
2022-10-22T09:27:25.859Z,8.20
2022-10-22T09:29:52.287Z,6.27
2022-10-22T09:32:19.517Z,3.97
2022-10-22T09:34:49.766Z,3.80
2022-10-22T09:37:19.050Z,5.40
2022-10-22T09:39:50.841Z,8.23
2022-10-22T09:42:20.034Z,7.77
2022-10-22T09:44:55.366Z,6.87
2022-10-22T09:47:43.013Z,9.00
2022-10-22T09:50:44.196Z,5.90
2022-10-22T09:53:23.283Z,6.27
2022-10-22T09:56:01.035Z,3.43
2022-10-22T09:58:28.389Z,3.00
2022-10-22T10:00:58.353Z,8.50
2022-10-22T10:03:28.056Z,3.77
2022-10-22T10:06:01.391Z,3.73
2022-10-22T10:08:31.479Z,5.50
2022-10-22T10:11:29.113Z,6.13
2022-10-22T10:14:21.601Z,4.57
2022-10-22T10:17:39.754Z,4.13
2022-10-22T10:20:29.494Z,4.70
2022-10-22T10:23:04.756Z,3.47
2022-10-22T10:26:09.467Z,3.10
2022-10-22T10:28:57.227Z,7.13
2022-10-22T10:31:41.787Z,4.73
2022-10-22T10:34:20.511Z,4.87
2022-10-22T10:37:34.448Z,5.73
2022-10-22T10:40:03.604Z,4.33
2022-10-22T10:42:51.755Z,4.63
2022-10-22T10:45:41.588Z,8.43
2022-10-22T10:48:08.225Z,3.83
2022-10-22T10:50:50.213Z,6.80
2022-10-22T10:53:48.821Z,1.60
2022-10-22T10:56:53.008Z,7.57
2022-10-22T10:59:37.287Z,3.17
2022-10-22T11:02:29.740Z,8.70
2022-10-22T11:05:14.331Z,3.63
2022-10-22T11:07:47.944Z,2.60
2022-10-22T11:10:46.405Z,5.77
2022-10-22T11:13:24.820Z,3.90
2022-10-22T11:16:22.293Z,4.07
2022-10-22T11:18:58.287Z,2.67
2022-10-22T11:21:42.736Z,5.80
2022-10-22T11:24:35.665Z,2.90
2022-10-22T11:27:14.933Z,6.07
2022-10-22T11:29:46.359Z,3.00
2022-10-22T11:32:20.157Z,3.07
2022-10-22T11:35:08.993Z,5.97
2022-10-22T11:37:39.068Z,6.27
2022-10-22T11:40:18.423Z,3.73
2022-10-22T11:42:49.673Z,3.63
2022-10-22T11:45:15.982Z,5.77
2022-10-22T11:48:14.882Z,3.83
2022-10-22T11:50:41.217Z,3.30
2022-10-22T11:53:13.593Z,6.77
2022-10-22T11:55:45.396Z,5.07
2022-10-22T11:58:30.496Z,3.60
2022-10-22T12:01:02.675Z,2.87
2022-10-22T12:03:31.886Z,4.37
2022-10-22T12:06:15.308Z,5.13
2022-10-22T12:08:45.961Z,3.97
2022-10-22T12:11:12.302Z,2.03
2022-10-22T12:14:03.821Z,4.40
2022-10-22T12:16:54.641Z,3.20
2022-10-22T12:19:22.031Z,4.10
2022-10-22T12:21:53.224Z,8.00
2022-10-22T12:24:23.057Z,4.30
2022-10-22T12:26:52.435Z,3.30
2022-10-22T12:29:23.730Z,3.53
2022-10-22T12:31:50.348Z,3.97
2022-10-22T12:34:21.375Z,4.30
2022-10-22T12:36:50.396Z,3.83
2022-10-22T12:39:20.593Z,4.10
2022-10-22T12:41:47.154Z,3.13
2022-10-22T12:44:17.973Z,6.43
2022-10-22T12:46:48.026Z,4.20
2022-10-22T12:49:21.724Z,4.53
2022-10-22T12:51:49.147Z,5.57
2022-10-22T12:54:35.250Z,2.40
2022-10-22T12:57:02.404Z,1.70
2022-10-22T12:59:38.625Z,2.57
2022-10-22T13:02:18.918Z,2.87
2022-10-22T13:05:24.865Z,2.60
2022-10-22T13:08:03.266Z,3.83
2022-10-22T13:10:56.219Z,4.50
2022-10-22T13:14:01.549Z,3.87
2022-10-22T13:16:30.035Z,5.87
2022-10-22T13:18:56.512Z,2.87
2022-10-22T13:21:39.228Z,8.97
2022-10-22T13:24:24.727Z,5.73
2022-10-22T13:26:53.741Z,3.47
2022-10-22T13:29:22.634Z,7.27
2022-10-22T13:31:52.082Z,3.30
2022-10-22T13:34:22.300Z,3.70
2022-10-22T13:36:49.500Z,3.30
2022-10-22T13:39:20.934Z,3.03
2022-10-22T13:41:50.172Z,4.20
2022-10-22T13:44:18.434Z,5.07
2022-10-22T13:46:45.467Z,3.40
2022-10-22T13:49:17.891Z,4.23
2022-10-22T13:51:44.695Z,5.50
2022-10-22T13:54:16.910Z,7.67
2022-10-22T13:56:43.276Z,3.97
2022-10-22T13:59:10.427Z,6.00
2022-10-22T14:01:37.679Z,8.30
2022-10-22T14:04:07.596Z,3.10
2022-10-22T14:09:11.197Z,5.23
2022-10-22T14:11:37.741Z,4.80
2022-10-22T14:14:08.588Z,4.40
2022-10-22T14:16:37.159Z,3.43
2022-10-22T14:19:04.944Z,4.37
2022-10-22T14:21:35.985Z,4.20
2022-10-22T14:24:02.434Z,7.17
2022-10-22T14:26:33.079Z,4.77
2022-10-22T14:29:09.909Z,4.53
2022-10-22T14:34:13.541Z,2.97
2022-10-22T14:36:40.188Z,2.83
2022-10-22T14:39:06.727Z,7.53
2022-10-22T14:41:33.494Z,6.87
2022-10-22T14:44:00.071Z,3.13
2022-10-22T14:46:26.650Z,4.57
2022-10-22T14:48:53.186Z,4.00
2022-10-22T14:51:21.563Z,4.33
2022-10-22T14:53:48.622Z,3.90
2022-10-22T14:56:17.935Z,6.10
2022-10-22T14:58:45.710Z,7.63
2022-10-22T15:01:12.584Z,7.13
2022-10-22T15:03:39.058Z,5.33
2022-10-22T15:06:05.942Z,3.30
2022-10-22T15:08:32.426Z,5.70
2022-10-22T15:11:00.634Z,4.10
2022-10-22T15:13:28.977Z,5.07
2022-10-22T15:15:56.224Z,4.90
2022-10-22T15:18:23.369Z,3.93
2022-10-22T15:21:01.245Z,3.10
2022-10-22T15:23:28.294Z,5.97
2022-10-22T15:25:55.387Z,7.80
2022-10-22T15:28:22.057Z,3.63
2022-10-22T15:31:00.033Z,6.53
2022-10-22T15:33:28.467Z,7.67
2022-10-22T15:35:55.832Z,4.80
2022-10-22T15:38:26.569Z,2.80
2022-10-22T15:41:05.511Z,5.73
2022-10-22T15:43:33.063Z,10.50
2022-10-22T15:46:18.435Z,3.93
2022-10-22T15:48:45.831Z,7.77
2022-10-22T15:51:18.038Z,3.63
2022-10-22T15:53:50.520Z,5.93
2022-10-22T15:56:16.932Z,5.87
2022-10-22T15:58:43.357Z,3.90
2022-10-22T16:01:12.978Z,8.93
2022-10-22T16:03:40.354Z,17.10
2022-10-22T16:06:08.164Z,12.40
2022-10-22T16:08:35.263Z,8.60
2022-10-22T16:11:01.685Z,8.03
2022-10-22T16:13:28.113Z,7.47
2022-10-22T16:15:54.510Z,6.60
2022-10-22T16:18:21.492Z,7.57
2022-10-22T16:20:47.918Z,7.37
2022-10-22T16:23:18.459Z,11.00
2022-10-22T16:25:45.983Z,5.53
2022-10-22T16:28:12.737Z,15.57
2022-10-22T16:30:39.392Z,8.33
2022-10-22T16:33:07.336Z,11.40
2022-10-22T16:35:33.993Z,16.67
2022-10-22T16:38:00.431Z,12.30
2022-10-22T16:40:27.063Z,14.73
2022-10-22T16:42:53.453Z,6.20
2022-10-22T16:45:19.815Z,10.03
2022-10-22T16:47:46.971Z,7.20
2022-10-22T16:50:13.509Z,10.30
2022-10-22T16:52:39.914Z,7.20
2022-10-22T16:55:06.637Z,7.50
2022-10-22T16:57:33.935Z,10.27
2022-10-22T17:00:00.399Z,9.20
2022-10-22T17:02:26.769Z,7.87
2022-10-22T17:04:53.170Z,14.07
2022-10-22T17:07:19.590Z,8.43
2022-10-22T17:09:45.948Z,8.03
2022-10-22T17:12:12.470Z,8.00
2022-10-22T17:14:39.026Z,11.17
2022-10-22T17:17:05.421Z,7.20
2022-10-22T17:19:31.940Z,7.67
2022-10-22T17:21:58.312Z,7.53
2022-10-22T17:24:24.702Z,7.17
2022-10-22T17:26:51.203Z,8.77
2022-10-22T17:29:18.027Z,7.43
2022-10-22T17:31:44.446Z,6.90
2022-10-22T17:34:16.145Z,7.03
2022-10-22T17:36:43.216Z,7.57
2022-10-22T17:39:15.950Z,6.03
2022-10-22T17:41:42.382Z,6.07
2022-10-22T17:44:09.205Z,13.67
2022-10-22T17:46:36.055Z,6.47
2022-10-22T17:49:05.098Z,4.80
2022-10-22T17:51:31.771Z,5.80
2022-10-22T17:53:58.641Z,9.90
2022-10-22T17:56:27.752Z,7.90
2022-10-22T17:58:54.565Z,4.20
2022-10-22T18:01:24.851Z,17.00
2022-10-22T18:03:52.784Z,7.37
2022-10-22T18:06:19.721Z,8.00
2022-10-22T18:08:46.256Z,5.40
2022-10-22T18:11:16.447Z,5.20
2022-10-22T18:13:42.891Z,8.27
2022-10-22T18:16:09.360Z,11.47
2022-10-22T18:18:36.739Z,14.37
2022-10-22T18:21:03.815Z,21.50
2022-10-22T18:23:30.225Z,15.10
2022-10-22T18:25:56.647Z,7.43
2022-10-22T18:28:23.181Z,14.33
2022-10-22T18:30:50.791Z,13.43
2022-10-22T18:33:18.879Z,7.87
2022-10-22T18:35:48.277Z,14.27
2022-10-22T18:38:14.696Z,12.60
2022-10-22T18:40:48.545Z,8.47
2022-10-22T18:43:16.201Z,10.47
2022-10-22T18:45:43.925Z,14.00
2022-10-22T18:48:10.953Z,11.30
2022-10-22T18:50:37.445Z,12.60
2022-10-22T18:53:03.997Z,12.27
2022-10-22T18:55:30.839Z,15.37
2022-10-22T18:57:57.221Z,12.07
2022-10-22T19:00:26.368Z,13.13
2022-10-22T19:02:54.025Z,9.50
2022-10-22T19:05:20.691Z,7.87
2022-10-22T19:07:48.671Z,10.57
2022-10-22T19:10:15.130Z,7.60
2022-10-22T19:12:41.594Z,11.90
2022-10-22T19:15:08.406Z,15.10
2022-10-22T19:17:35.070Z,7.03
2022-10-22T19:20:01.591Z,9.37
2022-10-22T19:22:28.049Z,9.10
2022-10-22T19:24:54.551Z,7.63
2022-10-22T19:27:20.990Z,5.40
2022-10-22T19:29:49.381Z,6.60
2022-10-22T19:32:16.746Z,9.20
2022-10-22T19:34:43.132Z,8.83
2022-10-22T19:37:09.504Z,8.97
2022-10-22T19:39:36.024Z,5.60
2022-10-22T19:42:04.141Z,11.63
2022-10-22T19:44:31.077Z,7.13
2022-10-22T19:46:57.447Z,8.87
2022-10-22T19:49:24.342Z,8.63
2022-10-22T19:51:50.790Z,7.47
2022-10-22T19:54:19.545Z,13.93
2022-10-22T19:56:46.675Z,6.27
2022-10-22T19:59:15.486Z,9.97
2022-10-22T20:01:42.282Z,9.90
2022-10-22T20:04:13.882Z,10.27
2022-10-22T20:06:40.309Z,7.40
2022-10-22T20:09:06.702Z,9.63
2022-10-22T20:11:33.153Z,14.67
2022-10-22T20:13:59.549Z,9.77
2022-10-22T20:16:29.550Z,9.10
2022-10-22T20:19:00.539Z,11.43
2022-10-22T20:21:27.439Z,10.70
2022-10-22T20:23:56.514Z,13.43
2022-10-22T20:26:24.423Z,10.63
2022-10-22T20:28:51.909Z,6.80
2022-10-22T20:31:20.572Z,10.90
2022-10-22T20:33:47.998Z,10.17
2022-10-22T20:36:17.600Z,10.30
2022-10-22T20:38:45.360Z,18.63
2022-10-22T20:41:14.114Z,12.73
2022-10-22T20:43:43.561Z,12.03
2022-10-22T20:46:16.793Z,8.50
2022-10-22T20:48:43.492Z,17.23
2022-10-22T20:51:09.965Z,16.07
2022-10-22T20:53:36.380Z,17.17
2022-10-22T20:56:02.923Z,20.23
2022-10-22T20:58:30.733Z,15.57
2022-10-22T21:00:58.995Z,17.53
2022-10-22T21:03:25.417Z,15.67
2022-10-22T21:05:51.823Z,15.57
2022-10-22T21:08:18.259Z,11.43
2022-10-22T21:10:49.094Z,15.20
2022-10-22T21:13:16.822Z,17.67
2022-10-22T21:15:43.246Z,13.40
2022-10-22T21:18:09.698Z,18.90
2022-10-22T21:20:36.157Z,16.80
2022-10-22T21:23:02.545Z,20.13
2022-10-22T21:25:28.987Z,19.70
2022-10-22T21:27:55.448Z,18.73
2022-10-22T21:30:21.855Z,18.23
2022-10-22T21:32:48.242Z,11.60
2022-10-22T21:35:14.742Z,20.00
2022-10-22T21:37:41.428Z,16.00
2022-10-22T21:40:08.643Z,13.13
2022-10-22T21:42:35.043Z,15.97
2022-10-22T21:45:01.587Z,13.47
2022-10-22T21:47:28.150Z,7.70
2022-10-22T21:49:54.761Z,12.60
2022-10-22T21:52:21.242Z,14.97
2022-10-22T21:54:47.649Z,10.00
2022-10-22T21:57:14.017Z,10.90
2022-10-22T21:59:40.526Z,15.17
2022-10-22T22:02:07.062Z,20.50
2022-10-22T22:04:33.773Z,15.97
2022-10-22T22:07:00.241Z,19.00
2022-10-22T22:09:26.705Z,7.93
2022-10-22T22:11:53.075Z,13.47
2022-10-22T22:14:19.488Z,12.27
2022-10-22T22:16:45.898Z,10.20
2022-10-22T22:19:12.458Z,13.97
2022-10-22T22:21:40.363Z,6.97
2022-10-22T22:24:07.748Z,14.83
2022-10-22T22:26:34.426Z,7.10
2022-10-22T22:29:01.188Z,6.30
2022-10-22T22:31:33.170Z,13.10
2022-10-22T22:34:08.537Z,11.60
2022-10-22T22:36:40.481Z,16.03
2022-10-22T22:39:08.959Z,6.23
2022-10-22T22:41:35.413Z,8.87
2022-10-22T22:44:02.005Z,9.60
2022-10-22T22:46:28.503Z,17.80
2022-10-22T22:48:55.015Z,10.20
2022-10-22T22:51:21.443Z,16.67
2022-10-22T22:53:48.005Z,15.13
2022-10-22T22:56:25.840Z,17.10
2022-10-22T22:58:52.239Z,15.60
2022-10-22T23:01:26.653Z,14.20
2022-10-22T23:04:16.336Z,16.67
2022-10-22T23:06:42.946Z,11.60
2022-10-22T23:09:11.584Z,13.30
2022-10-22T23:11:39.541Z,17.70
2022-10-22T23:14:07.339Z,17.43
2022-10-22T23:16:36.710Z,23.97
2022-10-22T23:19:04.564Z,15.30
2022-10-22T23:21:36.813Z,9.80
2022-10-22T23:24:07.365Z,9.30
2022-10-22T23:26:36.951Z,11.93
2022-10-22T23:29:14.006Z,13.50
2022-10-22T23:31:41.122Z,11.20
2022-10-22T23:34:08.297Z,10.53
2022-10-22T23:36:36.814Z,10.27
2022-10-22T23:39:05.510Z,13.80
2022-10-22T23:41:32.040Z,7.00
2022-10-22T23:43:58.854Z,14.80
2022-10-22T23:46:25.357Z,10.57
2022-10-22T23:48:53.723Z,6.70
2022-10-22T23:51:21.186Z,7.97
2022-10-22T23:53:53.074Z,8.80
2022-10-22T23:56:19.548Z,11.83
2022-10-22T23:58:51.439Z,9.97
